createdAt,value
2017-09-25T00:00:15.984Z,0
2017-09-25T00:01:17.628Z,0
2017-09-25T00:02:19.263Z,0
2017-09-25T00:03:20.892Z,0
2017-09-25T00:04:22.525Z,0
2017-09-25T00:05:24.153Z,0
2017-09-25T00:06:25.785Z,0
2017-09-25T00:07:27.415Z,0
2017-09-25T00:08:29.050Z,0
2017-09-25T00:09:30.677Z,0
2017-09-25T00:10:32.307Z,0
2017-09-25T00:11:33.956Z,0
2017-09-25T00:12:35.570Z,0
2017-09-25T00:13:37.202Z,0
2017-09-25T00:14:38.836Z,0
2017-09-25T00:15:40.465Z,0
2017-09-25T00:16:42.095Z,0
2017-09-25T00:17:43.726Z,0
2017-09-25T00:18:45.357Z,0
2017-09-25T00:19:46.990Z,0
2017-09-25T00:20:48.620Z,0
2017-09-25T00:21:50.250Z,0
2017-09-25T00:22:51.880Z,0
2017-09-25T00:23:53.511Z,0
2017-09-25T00:24:55.141Z,0
2017-09-25T00:25:56.771Z,0
2017-09-25T00:26:58.401Z,0
2017-09-25T00:28:00.030Z,0
2017-09-25T00:29:01.660Z,0
2017-09-25T00:30:03.289Z,0
2017-09-25T00:31:04.919Z,0
2017-09-25T00:32:06.548Z,0
2017-09-25T00:33:08.181Z,0
2017-09-25T00:34:09.821Z,0
2017-09-25T00:35:11.441Z,0
2017-09-25T00:36:13.072Z,0
2017-09-25T00:37:14.704Z,0
2017-09-25T00:38:16.330Z,0
2017-09-25T00:39:17.966Z,0
2017-09-25T00:40:19.598Z,0
2017-09-25T00:41:21.228Z,0
2017-09-25T00:42:22.856Z,0
2017-09-25T00:43:24.489Z,0
2017-09-25T00:44:26.117Z,0
2017-09-25T00:45:27.751Z,0
2017-09-25T00:46:29.378Z,0
2017-09-25T00:47:31.011Z,0
2017-09-25T00:48:32.646Z,0
2017-09-25T00:49:34.270Z,0
2017-09-25T00:50:35.903Z,0
2017-09-25T00:51:37.534Z,0
2017-09-25T00:52:39.164Z,0
2017-09-25T00:53:40.793Z,0
2017-09-25T00:54:42.428Z,0
2017-09-25T00:55:44.054Z,0
2017-09-25T00:56:45.686Z,0
2017-09-25T00:57:47.316Z,0
2017-09-25T00:58:48.949Z,0
2017-09-25T00:59:50.581Z,0
2017-09-25T01:00:52.213Z,0
2017-09-25T01:01:53.845Z,0
2017-09-25T01:02:55.476Z,0
2017-09-25T01:03:57.103Z,0
2017-09-25T01:04:58.736Z,0
2017-09-25T01:06:00.366Z,0
2017-09-25T01:07:01.999Z,0
2017-09-25T01:08:03.629Z,0
2017-09-25T01:09:05.259Z,0
2017-09-25T01:10:06.896Z,0
2017-09-25T01:11:08.519Z,0
2017-09-25T01:12:10.153Z,0
2017-09-25T01:13:11.779Z,0
2017-09-25T01:14:13.412Z,0
2017-09-25T01:15:15.041Z,0
2017-09-25T01:16:16.676Z,0
2017-09-25T01:17:18.317Z,0
2017-09-25T01:18:19.944Z,0
2017-09-25T01:19:21.575Z,0
2017-09-25T01:20:23.204Z,0
2017-09-25T01:21:24.835Z,0
2017-09-25T01:22:26.465Z,0
2017-09-25T01:23:28.100Z,0
2017-09-25T01:24:29.727Z,0
2017-09-25T01:25:31.358Z,0
2017-09-25T01:26:32.984Z,0
2017-09-25T01:27:34.619Z,0
2017-09-25T01:28:36.244Z,0
2017-09-25T01:29:37.878Z,0
2017-09-25T01:30:39.521Z,0
2017-09-25T01:31:41.141Z,0
2017-09-25T01:32:42.768Z,0
2017-09-25T01:33:44.403Z,0
2017-09-25T01:34:46.033Z,0
2017-09-25T01:35:47.665Z,0
2017-09-25T01:36:49.293Z,0
2017-09-25T01:37:50.926Z,0
2017-09-25T01:38:52.556Z,0
2017-09-25T01:39:54.185Z,0
2017-09-25T01:40:55.817Z,0
2017-09-25T01:41:57.447Z,0
2017-09-25T01:42:59.079Z,0
2017-09-25T01:44:00.710Z,0
2017-09-25T01:45:02.354Z,0
2017-09-25T01:46:03.979Z,0
2017-09-25T01:47:05.609Z,0
2017-09-25T01:48:07.237Z,0
2017-09-25T01:49:08.874Z,0
2017-09-25T01:50:10.505Z,0
2017-09-25T01:51:12.129Z,0
2017-09-25T01:52:13.761Z,0
2017-09-25T01:53:15.401Z,0
2017-09-25T01:54:17.026Z,0
2017-09-25T01:55:18.658Z,0
2017-09-25T01:56:20.290Z,0
2017-09-25T01:57:21.920Z,0
2017-09-25T01:58:23.553Z,0
2017-09-25T01:59:25.187Z,0
2017-09-25T02:00:26.816Z,0
2017-09-25T02:01:28.443Z,0
2017-09-25T02:02:30.076Z,0
2017-09-25T02:03:31.711Z,0
2017-09-25T02:04:33.337Z,0
2017-09-25T02:05:34.968Z,0
2017-09-25T02:06:36.599Z,0
2017-09-25T02:07:38.228Z,0
2017-09-25T02:08:39.860Z,0
2017-09-25T02:09:41.492Z,0
2017-09-25T02:10:43.118Z,0
2017-09-25T02:11:44.751Z,0
2017-09-25T02:12:46.384Z,0
2017-09-25T02:13:48.018Z,0
2017-09-25T02:14:49.647Z,0
2017-09-25T02:15:51.274Z,0
2017-09-25T02:16:52.903Z,0
2017-09-25T02:17:54.534Z,0
2017-09-25T02:18:56.165Z,0
2017-09-25T02:19:57.797Z,0
2017-09-25T02:20:59.428Z,0
2017-09-25T02:22:01.055Z,0
2017-09-25T02:23:02.685Z,0
2017-09-25T02:24:04.313Z,0
2017-09-25T02:25:05.949Z,0
2017-09-25T02:26:07.571Z,0
2017-09-25T02:27:09.201Z,0
2017-09-25T02:28:10.831Z,0
2017-09-25T02:29:12.460Z,0
2017-09-25T02:30:14.090Z,0
2017-09-25T02:31:15.719Z,0
2017-09-25T02:32:17.360Z,0
2017-09-25T02:33:18.994Z,0
2017-09-25T02:34:20.627Z,0
2017-09-25T02:35:22.260Z,0
2017-09-25T02:36:23.885Z,0
2017-09-25T02:37:25.513Z,0
2017-09-25T02:38:27.147Z,0
2017-09-25T02:39:28.774Z,0
2017-09-25T02:40:30.404Z,0
2017-09-25T02:41:32.034Z,0
2017-09-25T02:42:33.683Z,0
2017-09-25T02:43:35.312Z,0
2017-09-25T02:44:36.939Z,0
2017-09-25T02:45:38.567Z,0
2017-09-25T02:46:40.197Z,0
2017-09-25T02:47:41.826Z,0
2017-09-25T02:48:43.459Z,0
2017-09-25T02:49:45.092Z,0
2017-09-25T02:50:46.718Z,0
2017-09-25T02:51:48.357Z,0
2017-09-25T02:52:49.978Z,0
2017-09-25T02:53:51.609Z,0
2017-09-25T02:54:53.237Z,0
2017-09-25T02:55:54.868Z,0
2017-09-25T02:56:56.498Z,0
2017-09-25T02:57:58.126Z,0
2017-09-25T02:58:59.753Z,0
2017-09-25T03:00:01.382Z,0
2017-09-25T03:01:03.012Z,0
2017-09-25T03:02:04.644Z,0
2017-09-25T03:03:06.274Z,0
2017-09-25T03:04:07.907Z,0
2017-09-25T03:05:09.533Z,0
2017-09-25T03:06:11.166Z,0
2017-09-25T03:07:12.796Z,0
2017-09-25T03:08:14.434Z,0
2017-09-25T03:09:16.061Z,0
2017-09-25T03:10:17.708Z,0
2017-09-25T03:11:19.344Z,0
2017-09-25T03:12:20.969Z,0
2017-09-25T03:13:22.615Z,0
2017-09-25T03:14:24.231Z,0
2017-09-25T03:15:25.862Z,0
2017-09-25T03:16:27.491Z,0
2017-09-25T03:17:29.120Z,0
2017-09-25T03:18:30.759Z,0
2017-09-25T03:19:32.389Z,0
2017-09-25T03:20:34.019Z,0
2017-09-25T03:21:35.652Z,0
2017-09-25T03:22:37.280Z,0
2017-09-25T03:23:38.911Z,0
2017-09-25T03:24:40.544Z,0
2017-09-25T03:25:42.174Z,0
2017-09-25T03:26:43.804Z,0
2017-09-25T03:27:45.433Z,0
2017-09-25T03:28:47.061Z,0
2017-09-25T03:29:48.693Z,0
2017-09-25T03:30:50.325Z,0
2017-09-25T03:31:51.952Z,0
2017-09-25T03:32:53.584Z,0
2017-09-25T03:33:55.214Z,0
2017-09-25T03:34:56.842Z,0
2017-09-25T03:35:58.477Z,0
2017-09-25T03:37:00.106Z,0
2017-09-25T03:38:01.730Z,0
2017-09-25T03:39:03.361Z,0
2017-09-25T03:40:04.992Z,0
2017-09-25T03:41:06.623Z,0
2017-09-25T03:42:08.253Z,0
2017-09-25T03:43:09.882Z,0
2017-09-25T03:44:11.541Z,0
2017-09-25T03:45:13.173Z,0
2017-09-25T03:46:14.802Z,0
2017-09-25T03:47:16.436Z,0
2017-09-25T03:48:18.065Z,0
2017-09-25T03:49:19.693Z,0
2017-09-25T03:50:21.324Z,0
2017-09-25T03:51:22.954Z,0
2017-09-25T03:52:24.587Z,0
2017-09-25T03:53:26.216Z,0
2017-09-25T03:54:27.863Z,0
2017-09-25T03:55:29.491Z,0
2017-09-25T03:56:31.110Z,0
2017-09-25T03:57:32.745Z,0
2017-09-25T03:58:34.376Z,0
2017-09-25T03:59:36.006Z,0
2017-09-25T04:00:37.635Z,0
2017-09-25T04:01:39.269Z,0
2017-09-25T04:02:40.897Z,0
2017-09-25T04:03:42.526Z,0
2017-09-25T04:04:44.156Z,0
2017-09-25T04:05:45.786Z,0
2017-09-25T04:06:47.415Z,0
2017-09-25T04:07:49.053Z,0
2017-09-25T04:08:50.679Z,0
2017-09-25T04:09:52.309Z,0
2017-09-25T04:10:53.938Z,0
2017-09-25T04:11:55.568Z,0
2017-09-25T04:12:57.199Z,0
2017-09-25T04:13:58.827Z,0
2017-09-25T04:15:00.460Z,0
2017-09-25T04:16:02.090Z,0
2017-09-25T04:17:03.719Z,0
2017-09-25T04:18:05.349Z,0
2017-09-25T04:19:06.978Z,0
2017-09-25T04:20:08.607Z,0
2017-09-25T04:21:10.241Z,0
2017-09-25T04:22:11.870Z,0
2017-09-25T04:23:13.503Z,0
2017-09-25T04:24:15.133Z,0
2017-09-25T04:25:16.781Z,0
2017-09-25T04:26:18.411Z,0
2017-09-25T04:27:20.038Z,0
2017-09-25T04:28:21.671Z,0
2017-09-25T04:29:23.303Z,0
2017-09-25T04:30:24.935Z,0
2017-09-25T04:31:26.564Z,0
2017-09-25T04:32:28.191Z,0
2017-09-25T04:33:29.819Z,0
2017-09-25T04:34:31.454Z,0
2017-09-25T04:35:33.082Z,0
2017-09-25T04:36:34.713Z,0
2017-09-25T04:37:36.346Z,0
2017-09-25T04:38:37.972Z,0
2017-09-25T04:39:39.602Z,0
2017-09-25T04:40:41.232Z,0
2017-09-25T04:41:42.865Z,0
2017-09-25T04:42:44.496Z,0
2017-09-25T04:43:46.126Z,0
2017-09-25T04:44:47.761Z,0
2017-09-25T04:45:49.388Z,0
2017-09-25T04:46:51.018Z,0
2017-09-25T04:47:52.646Z,0
2017-09-25T04:48:54.279Z,0
2017-09-25T04:49:55.907Z,0
2017-09-25T04:50:57.540Z,0
2017-09-25T04:51:59.170Z,0
2017-09-25T04:53:00.800Z,0
2017-09-25T04:54:02.427Z,0
2017-09-25T04:55:04.060Z,0
2017-09-25T04:56:05.691Z,0
2017-09-25T04:57:07.319Z,0
2017-09-25T04:58:08.952Z,0
2017-09-25T04:59:10.585Z,0
2017-09-25T05:00:12.231Z,0
2017-09-25T05:01:13.842Z,0
2017-09-25T05:02:15.481Z,0
2017-09-25T05:03:17.113Z,0
2017-09-25T05:04:18.745Z,0
2017-09-25T05:05:20.373Z,0
2017-09-25T05:06:22.050Z,0
2017-09-25T05:07:23.852Z,0
2017-09-25T05:08:25.491Z,0
2017-09-25T05:09:27.130Z,0
2017-09-25T05:10:28.759Z,0
2017-09-25T05:11:30.388Z,0
2017-09-25T05:12:32.998Z,0
2017-09-25T05:13:34.630Z,0
2017-09-25T05:14:36.259Z,0
2017-09-25T05:15:37.892Z,0
2017-09-25T05:16:39.522Z,0
2017-09-25T05:17:41.152Z,0
2017-09-25T05:18:42.810Z,0
2017-09-25T05:19:44.437Z,0
2017-09-25T05:20:46.069Z,0
2017-09-25T05:21:47.717Z,0
2017-09-25T05:22:49.347Z,0
2017-09-25T05:23:50.977Z,0
2017-09-25T05:24:52.613Z,0
2017-09-25T05:25:54.242Z,0
2017-09-25T05:26:55.873Z,0
2017-09-25T05:27:57.508Z,0
2017-09-25T05:28:59.139Z,0
2017-09-25T05:30:00.826Z,0
2017-09-25T05:31:02.493Z,0
2017-09-25T05:32:04.124Z,0
2017-09-25T05:33:05.755Z,0
2017-09-25T05:34:07.390Z,5
2017-09-25T05:35:09.023Z,5
2017-09-25T05:36:10.656Z,5
2017-09-25T05:37:12.287Z,5
2017-09-25T05:38:13.916Z,5
2017-09-25T05:39:15.548Z,5
2017-09-25T05:40:17.180Z,5
2017-09-25T05:41:18.818Z,5
2017-09-25T05:42:20.453Z,10
2017-09-25T05:43:22.088Z,10
2017-09-25T05:44:23.718Z,10
2017-09-25T05:45:25.354Z,10
2017-09-25T05:46:26.986Z,10
2017-09-25T05:47:28.623Z,10
2017-09-25T05:48:30.258Z,10
2017-09-25T05:49:31.891Z,15
2017-09-25T05:50:33.530Z,15
2017-09-25T05:51:35.164Z,15
2017-09-25T05:52:36.798Z,15
2017-09-25T05:53:38.431Z,15
2017-09-25T05:54:40.064Z,15
2017-09-25T05:55:41.700Z,20
2017-09-25T05:56:43.335Z,20
2017-09-25T05:57:44.967Z,20
2017-09-25T05:58:46.600Z,20
2017-09-25T05:59:48.237Z,20
2017-09-25T06:00:49.877Z,20
2017-09-25T06:01:51.507Z,20
2017-09-25T06:02:53.143Z,20
2017-09-25T06:03:54.787Z,20
2017-09-25T06:04:56.414Z,20
2017-09-25T06:05:58.049Z,20
2017-09-25T06:06:59.685Z,20
2017-09-25T06:08:01.317Z,20
2017-09-25T06:09:02.951Z,20
2017-09-25T06:10:04.587Z,20
2017-09-25T06:11:06.221Z,20
2017-09-25T06:12:07.856Z,20
2017-09-25T06:13:09.492Z,20
2017-09-25T06:14:11.127Z,20
2017-09-25T06:15:12.762Z,20
2017-09-25T06:16:14.399Z,20
2017-09-25T06:17:16.031Z,20
2017-09-25T06:18:17.665Z,20
2017-09-25T06:19:19.300Z,20
2017-09-25T06:20:20.934Z,20
2017-09-25T06:21:22.568Z,20
2017-09-25T06:22:24.205Z,20
2017-09-25T06:23:25.843Z,20
2017-09-25T06:24:27.478Z,20
2017-09-25T06:25:29.112Z,20
2017-09-25T06:26:30.751Z,20
2017-09-25T06:27:32.385Z,20
2017-09-25T06:28:34.020Z,20
2017-09-25T06:29:35.655Z,20
2017-09-25T06:30:37.291Z,20
2017-09-25T06:31:38.932Z,20
2017-09-25T06:32:40.563Z,25
2017-09-25T06:33:42.195Z,25
2017-09-25T06:34:43.829Z,25
2017-09-25T06:35:45.461Z,25
2017-09-25T06:36:47.113Z,25
2017-09-25T06:37:48.749Z,25
2017-09-25T06:38:50.385Z,25
2017-09-25T06:39:52.020Z,20
2017-09-25T06:40:53.653Z,20
2017-09-25T06:41:55.291Z,25
2017-09-25T06:42:56.928Z,25
2017-09-25T06:43:58.566Z,25
2017-09-25T06:45:00.199Z,25
2017-09-25T06:46:01.834Z,25
2017-09-25T06:47:03.480Z,25
2017-09-25T06:48:05.112Z,25
2017-09-25T06:49:06.752Z,25
2017-09-25T06:50:08.387Z,30
2017-09-25T06:51:10.022Z,30
2017-09-25T06:52:11.659Z,30
2017-09-25T06:53:13.297Z,30
2017-09-25T06:54:14.930Z,30
2017-09-25T06:55:16.563Z,35
2017-09-25T06:56:18.200Z,35
2017-09-25T06:57:19.833Z,35
2017-09-25T06:58:21.472Z,35
2017-09-25T06:59:23.109Z,40
2017-09-25T07:00:24.745Z,40
2017-09-25T07:01:26.384Z,40
2017-09-25T07:02:28.022Z,40
2017-09-25T07:03:29.655Z,40
2017-09-25T07:04:31.290Z,45
2017-09-25T07:05:32.927Z,45
2017-09-25T07:06:34.574Z,45
2017-09-25T07:07:36.202Z,45
2017-09-25T07:08:37.840Z,50
2017-09-25T07:09:39.476Z,50
2017-09-25T07:10:41.119Z,50
2017-09-25T07:11:42.756Z,50
2017-09-25T07:12:44.390Z,50
2017-09-25T07:13:46.024Z,50
2017-09-25T07:14:47.667Z,50
2017-09-25T07:15:49.302Z,55
2017-09-25T07:16:50.936Z,55
2017-09-25T07:17:52.571Z,55
2017-09-25T07:18:54.208Z,55
2017-09-25T07:19:55.842Z,60
2017-09-25T07:20:57.478Z,65
2017-09-25T07:21:59.118Z,70
2017-09-25T07:23:00.756Z,70
2017-09-25T07:24:02.393Z,70
2017-09-25T07:25:04.027Z,70
2017-09-25T07:26:05.664Z,70
2017-09-25T07:27:07.299Z,75
2017-09-25T07:28:08.938Z,65
2017-09-25T07:29:10.574Z,65
2017-09-25T07:30:12.214Z,65
2017-09-25T07:31:13.847Z,65
2017-09-25T07:32:15.484Z,65
2017-09-25T07:33:17.153Z,65
2017-09-25T07:34:18.789Z,65
2017-09-25T07:35:20.426Z,70
2017-09-25T07:36:22.068Z,70
2017-09-25T07:37:23.696Z,70
2017-09-25T07:38:25.339Z,70
2017-09-25T07:39:26.973Z,70
2017-09-25T07:40:28.608Z,75
2017-09-25T07:41:30.243Z,75
2017-09-25T07:42:31.879Z,75
2017-09-25T07:43:33.520Z,75
2017-09-25T07:44:35.169Z,75
2017-09-25T07:45:36.804Z,75
2017-09-25T07:46:38.437Z,75
2017-09-25T07:47:40.070Z,75
2017-09-25T07:48:41.710Z,75
2017-09-25T07:49:43.346Z,80
2017-09-25T07:50:44.981Z,75
2017-09-25T07:51:46.622Z,75
2017-09-25T07:52:48.255Z,75
2017-09-25T07:53:49.889Z,75
2017-09-25T07:54:51.526Z,75
2017-09-25T07:55:53.160Z,75
2017-09-25T07:56:54.798Z,75
2017-09-25T07:57:56.432Z,75
2017-09-25T07:58:58.068Z,80
2017-09-25T07:59:59.704Z,85
2017-09-25T08:01:01.341Z,90
2017-09-25T08:02:02.973Z,90
2017-09-25T08:03:04.610Z,100
2017-09-25T08:04:06.248Z,100
2017-09-25T08:05:07.929Z,110
2017-09-25T08:06:09.560Z,115
2017-09-25T08:07:11.192Z,115
2017-09-25T08:08:12.829Z,125
2017-09-25T08:09:14.466Z,125
2017-09-25T08:10:16.104Z,125
2017-09-25T08:11:17.740Z,120
2017-09-25T08:12:19.378Z,120
2017-09-25T08:13:21.019Z,120
2017-09-25T08:14:22.653Z,125
2017-09-25T08:15:24.289Z,125
2017-09-25T08:16:25.924Z,130
2017-09-25T08:17:27.559Z,130
2017-09-25T08:18:29.196Z,130
2017-09-25T08:19:30.832Z,130
2017-09-25T08:20:32.472Z,130
2017-09-25T08:21:34.107Z,130
2017-09-25T08:22:35.742Z,130
2017-09-25T08:23:37.381Z,130
2017-09-25T08:24:39.019Z,130
2017-09-25T08:25:40.660Z,130
2017-09-25T08:26:42.299Z,125
2017-09-25T08:27:43.937Z,125
2017-09-25T08:28:45.575Z,130
2017-09-25T08:29:47.217Z,135
2017-09-25T08:30:48.851Z,130
2017-09-25T08:31:50.484Z,135
2017-09-25T08:32:52.123Z,135
2017-09-25T08:33:53.765Z,140
2017-09-25T08:34:55.400Z,145
2017-09-25T08:35:57.037Z,140
2017-09-25T08:36:58.673Z,145
2017-09-25T08:38:00.308Z,150
2017-09-25T08:39:01.948Z,155
2017-09-25T08:40:03.587Z,160
2017-09-25T08:41:05.224Z,160
2017-09-25T08:42:06.864Z,160
2017-09-25T08:43:08.498Z,165
2017-09-25T08:44:10.135Z,175
2017-09-25T08:45:11.772Z,175
2017-09-25T08:46:13.410Z,185
2017-09-25T08:47:15.046Z,195
2017-09-25T08:48:16.686Z,205
2017-09-25T08:49:18.324Z,215
2017-09-25T08:50:19.956Z,220
2017-09-25T08:51:21.596Z,220
2017-09-25T08:52:23.247Z,215
2017-09-25T08:53:24.885Z,215
2017-09-25T08:54:26.521Z,210
2017-09-25T08:55:28.162Z,215
2017-09-25T08:56:29.796Z,220
2017-09-25T08:57:31.435Z,225
2017-09-25T08:58:33.072Z,230
2017-09-25T08:59:34.710Z,235
2017-09-25T09:00:36.356Z,240
2017-09-25T09:01:37.998Z,245
2017-09-25T09:02:39.667Z,255
2017-09-25T09:03:41.308Z,250
2017-09-25T09:04:42.942Z,245
2017-09-25T09:05:44.582Z,235
2017-09-25T09:06:46.220Z,230
2017-09-25T09:07:47.856Z,225
2017-09-25T09:08:49.496Z,225
2017-09-25T09:09:51.135Z,230
2017-09-25T09:10:52.772Z,225
2017-09-25T09:11:54.410Z,230
2017-09-25T09:12:56.050Z,235
2017-09-25T09:13:57.687Z,240
2017-09-25T09:14:59.326Z,245
2017-09-25T09:16:00.965Z,250
2017-09-25T09:17:02.600Z,255
2017-09-25T09:18:04.238Z,260
2017-09-25T09:19:05.880Z,260
2017-09-25T09:20:07.527Z,265
2017-09-25T09:21:09.165Z,275
2017-09-25T09:22:10.802Z,275
2017-09-25T09:23:12.439Z,275
2017-09-25T09:24:14.080Z,285
2017-09-25T09:25:15.720Z,295
2017-09-25T09:26:17.358Z,305
2017-09-25T09:27:18.993Z,325
2017-09-25T09:28:20.630Z,330
2017-09-25T09:29:22.264Z,380
2017-09-25T09:30:23.903Z,400
2017-09-25T09:31:25.542Z,330
2017-09-25T09:32:27.182Z,305
2017-09-25T09:33:28.818Z,295
2017-09-25T09:34:30.456Z,260
2017-09-25T09:35:32.098Z,415
2017-09-25T09:36:33.735Z,335
2017-09-25T09:37:35.382Z,270
2017-09-25T09:38:37.021Z,230
2017-09-25T09:39:38.658Z,230
2017-09-25T09:40:40.295Z,205
2017-09-25T09:41:41.930Z,205
2017-09-25T09:42:43.569Z,195
2017-09-25T09:43:45.203Z,200
2017-09-25T09:44:46.840Z,210
2017-09-25T09:45:48.482Z,220
2017-09-25T09:46:50.120Z,215
2017-09-25T09:47:51.757Z,215
2017-09-25T09:48:53.387Z,210
2017-09-25T09:49:55.027Z,195
2017-09-25T09:50:56.667Z,190
2017-09-25T09:51:58.306Z,185
2017-09-25T09:52:59.943Z,190
2017-09-25T09:54:01.581Z,195
2017-09-25T09:55:03.222Z,195
2017-09-25T09:56:04.853Z,235
2017-09-25T09:57:06.488Z,250
2017-09-25T09:58:08.135Z,180
2017-09-25T09:59:09.779Z,165
2017-09-25T10:00:11.407Z,165
2017-09-25T10:01:13.043Z,165
2017-09-25T10:02:14.683Z,165
2017-09-25T10:03:16.316Z,165
2017-09-25T10:04:17.962Z,170
2017-09-25T10:05:19.599Z,175
2017-09-25T10:06:21.234Z,175
2017-09-25T10:07:22.870Z,195
2017-09-25T10:08:24.508Z,205
2017-09-25T10:09:26.142Z,295
2017-09-25T10:10:27.780Z,180
2017-09-25T10:11:29.417Z,200
2017-09-25T10:12:31.054Z,225
2017-09-25T10:13:32.690Z,230
2017-09-25T10:14:34.331Z,230
2017-09-25T10:15:35.964Z,255
2017-09-25T10:16:37.613Z,275
2017-09-25T10:17:39.249Z,290
2017-09-25T10:18:40.887Z,270
2017-09-25T10:19:42.523Z,250
2017-09-25T10:20:44.159Z,245
2017-09-25T10:21:45.803Z,225
2017-09-25T10:22:47.438Z,220
2017-09-25T10:23:49.076Z,570
2017-09-25T10:24:50.712Z,400
2017-09-25T10:25:52.352Z,410
2017-09-25T10:26:53.990Z,420
2017-09-25T10:27:55.630Z,430
2017-09-25T10:28:57.268Z,425
2017-09-25T10:29:58.908Z,445
2017-09-25T10:31:00.545Z,510
2017-09-25T10:32:02.188Z,675
2017-09-25T10:33:03.832Z,515
2017-09-25T10:34:05.492Z,730
2017-09-25T10:35:07.147Z,485
2017-09-25T10:36:08.790Z,345
2017-09-25T10:37:10.456Z,310
2017-09-25T10:38:12.091Z,295
2017-09-25T10:39:13.730Z,280
2017-09-25T10:40:15.371Z,285
2017-09-25T10:41:17.034Z,315
2017-09-25T10:42:18.677Z,315
2017-09-25T10:43:20.331Z,315
2017-09-25T10:44:21.969Z,285
2017-09-25T10:45:23.603Z,240
2017-09-25T10:46:25.238Z,215
2017-09-25T10:47:26.890Z,185
2017-09-25T10:48:28.525Z,165
2017-09-25T10:49:30.165Z,155
2017-09-25T10:50:31.803Z,145
2017-09-25T10:51:33.443Z,135
2017-09-25T10:52:35.078Z,125
2017-09-25T10:53:36.729Z,110
2017-09-25T10:54:38.365Z,100
2017-09-25T10:55:40.002Z,90
2017-09-25T10:56:41.639Z,80
2017-09-25T10:57:43.287Z,70
2017-09-25T10:58:44.926Z,70
2017-09-25T10:59:46.555Z,65
2017-09-25T11:00:48.193Z,60
2017-09-25T11:01:49.842Z,60
2017-09-25T11:02:51.480Z,60
2017-09-25T11:03:53.116Z,60
2017-09-25T11:04:54.750Z,60
2017-09-25T11:05:56.390Z,60
2017-09-25T11:06:58.024Z,60
2017-09-25T11:07:59.659Z,55
2017-09-25T11:09:01.299Z,55
2017-09-25T11:10:02.932Z,50
2017-09-25T11:11:04.579Z,45
2017-09-25T11:12:06.213Z,45
2017-09-25T11:13:07.855Z,45
2017-09-25T11:14:09.487Z,45
2017-09-25T11:15:11.122Z,40
2017-09-25T11:16:12.765Z,40
2017-09-25T11:17:14.400Z,40
2017-09-25T11:18:16.036Z,40
2017-09-25T11:19:17.669Z,40
2017-09-25T11:20:19.306Z,40
2017-09-25T11:21:20.939Z,40
2017-09-25T11:22:22.573Z,40
2017-09-25T11:23:24.206Z,40
2017-09-25T11:24:25.842Z,40
2017-09-25T11:25:27.476Z,40
2017-09-25T11:26:29.109Z,40
2017-09-25T11:27:30.744Z,40
2017-09-25T11:28:32.377Z,45
2017-09-25T11:29:34.008Z,45
2017-09-25T11:30:35.646Z,45
2017-09-25T11:31:37.284Z,50
2017-09-25T11:32:38.919Z,50
2017-09-25T11:33:40.556Z,50
2017-09-25T11:34:42.191Z,55
2017-09-25T11:35:43.823Z,55
2017-09-25T11:36:45.466Z,50
2017-09-25T11:37:47.104Z,50
2017-09-25T11:38:48.733Z,50
2017-09-25T11:39:50.369Z,55
2017-09-25T11:40:52.005Z,55
2017-09-25T11:41:53.643Z,55
2017-09-25T11:42:55.276Z,55
2017-09-25T11:43:56.908Z,55
2017-09-25T11:44:58.543Z,60
2017-09-25T11:46:00.180Z,60
2017-09-25T11:47:01.817Z,65
2017-09-25T11:48:03.450Z,65
2017-09-25T11:49:05.093Z,70
2017-09-25T11:50:06.725Z,75
2017-09-25T11:51:08.357Z,80
2017-09-25T11:52:09.995Z,80
2017-09-25T11:53:11.629Z,80
2017-09-25T11:54:13.265Z,80
2017-09-25T11:55:14.899Z,85
2017-09-25T11:56:16.536Z,85
2017-09-25T11:57:18.172Z,85
2017-09-25T11:58:19.804Z,85
2017-09-25T11:59:21.438Z,85
2017-09-25T12:00:23.072Z,85
2017-09-25T12:01:24.708Z,90
2017-09-25T12:02:26.343Z,90
2017-09-25T12:03:27.981Z,95
2017-09-25T12:04:29.616Z,100
2017-09-25T12:05:31.249Z,105
2017-09-25T12:06:32.893Z,105
2017-09-25T12:07:34.523Z,115
2017-09-25T12:08:36.180Z,130
2017-09-25T12:09:37.801Z,135
2017-09-25T12:10:39.440Z,150
2017-09-25T12:11:41.077Z,160
2017-09-25T12:12:42.711Z,170
2017-09-25T12:13:44.345Z,180
2017-09-25T12:14:45.979Z,190
2017-09-25T12:15:47.615Z,210
2017-09-25T12:16:49.250Z,240
2017-09-25T12:17:50.888Z,260
2017-09-25T12:18:52.521Z,260
2017-09-25T12:19:54.159Z,250
2017-09-25T12:20:55.796Z,235
2017-09-25T12:21:57.429Z,205
2017-09-25T12:22:59.070Z,190
2017-09-25T12:24:00.707Z,190
2017-09-25T12:25:02.360Z,180
2017-09-25T12:26:03.993Z,170
2017-09-25T12:27:05.633Z,155
2017-09-25T12:28:07.268Z,140
2017-09-25T12:29:08.912Z,130
2017-09-25T12:30:10.553Z,125
2017-09-25T12:31:12.189Z,115
2017-09-25T12:32:13.829Z,105
2017-09-25T12:33:15.463Z,100
2017-09-25T12:34:17.097Z,100
2017-09-25T12:35:18.735Z,100
2017-09-25T12:36:20.371Z,105
2017-09-25T12:37:22.012Z,105
2017-09-25T12:38:23.646Z,105
2017-09-25T12:39:25.283Z,105
2017-09-25T12:40:26.920Z,105
2017-09-25T12:41:28.557Z,105
2017-09-25T12:42:30.193Z,105
2017-09-25T12:43:31.825Z,105
2017-09-25T12:44:33.467Z,105
2017-09-25T12:45:35.104Z,105
2017-09-25T12:46:36.741Z,105
2017-09-25T12:47:38.376Z,105
2017-09-25T12:48:40.010Z,105
2017-09-25T12:49:41.645Z,105
2017-09-25T12:50:43.300Z,105
2017-09-25T12:51:44.936Z,110
2017-09-25T12:52:46.572Z,110
2017-09-25T12:53:48.209Z,110
2017-09-25T12:54:49.847Z,120
2017-09-25T12:55:51.482Z,125
2017-09-25T12:56:53.118Z,130
2017-09-25T12:57:54.753Z,145
2017-09-25T12:58:56.392Z,160
2017-09-25T12:59:58.027Z,175
2017-09-25T13:00:59.668Z,195
2017-09-25T13:02:01.324Z,225
2017-09-25T13:03:02.946Z,280
2017-09-25T13:04:04.580Z,355
2017-09-25T13:05:06.217Z,450
2017-09-25T13:06:07.855Z,490
2017-09-25T13:07:09.497Z,705
2017-09-25T13:08:11.133Z,720
2017-09-25T13:09:12.768Z,720
2017-09-25T13:10:14.406Z,1110
2017-09-25T13:11:16.044Z,2835
2017-09-25T13:12:17.680Z,2725
2017-09-25T13:13:19.321Z,2645
2017-09-25T13:14:20.962Z,1255
2017-09-25T13:15:22.604Z,2290
2017-09-25T13:16:24.246Z,1115
2017-09-25T13:17:25.886Z,835
2017-09-25T13:18:27.525Z,860
2017-09-25T13:19:29.166Z,615
2017-09-25T13:20:30.833Z,425
2017-09-25T13:21:32.455Z,340
2017-09-25T13:22:34.101Z,305
2017-09-25T13:23:35.745Z,285
2017-09-25T13:24:37.382Z,280
2017-09-25T13:25:39.019Z,260
2017-09-25T13:26:40.655Z,255
2017-09-25T13:27:42.295Z,270
2017-09-25T13:28:43.935Z,320
2017-09-25T13:29:45.577Z,240
2017-09-25T13:30:47.213Z,195
2017-09-25T13:31:48.852Z,145
2017-09-25T13:32:50.492Z,110
2017-09-25T13:33:52.132Z,95
2017-09-25T13:34:53.769Z,95
2017-09-25T13:35:55.407Z,105
2017-09-25T13:36:57.047Z,115
2017-09-25T13:37:58.685Z,125
2017-09-25T13:39:00.320Z,130
2017-09-25T13:40:01.954Z,135
2017-09-25T13:41:03.593Z,135
2017-09-25T13:42:05.234Z,135
2017-09-25T13:43:06.873Z,155
2017-09-25T13:44:08.510Z,565
2017-09-25T13:45:10.148Z,105
2017-09-25T13:46:11.782Z,90
2017-09-25T13:47:13.428Z,85
2017-09-25T13:48:15.064Z,85
2017-09-25T13:49:16.701Z,85
2017-09-25T13:50:18.348Z,90
2017-09-25T13:51:19.974Z,100
2017-09-25T13:52:21.618Z,105
2017-09-25T13:53:23.249Z,115
2017-09-25T13:54:24.875Z,120
2017-09-25T13:55:26.518Z,130
2017-09-25T13:56:28.151Z,135
2017-09-25T13:57:29.792Z,135
2017-09-25T13:58:31.435Z,140
2017-09-25T14:03:06.016Z,125
2017-09-25T14:04:07.650Z,135
2017-09-25T14:05:09.282Z,145
2017-09-25T14:06:10.916Z,130
2017-09-25T14:07:12.554Z,125
2017-09-25T14:08:14.218Z,130
2017-09-25T14:09:15.854Z,125
2017-09-25T14:10:17.493Z,125
2017-09-25T14:11:19.141Z,120
2017-09-25T14:12:20.773Z,120
2017-09-25T14:13:22.408Z,120
2017-09-25T14:14:24.046Z,120
2017-09-25T14:15:25.689Z,115
2017-09-25T14:16:27.338Z,115
2017-09-25T14:17:28.972Z,115
2017-09-25T14:18:30.607Z,120
2017-09-25T14:19:32.424Z,120
2017-09-25T14:20:34.124Z,120
2017-09-25T14:21:35.727Z,125
2017-09-25T14:22:37.370Z,130
2017-09-25T14:23:39.012Z,135
2017-09-25T14:24:40.646Z,135
2017-09-25T14:25:42.303Z,140
2017-09-25T14:26:43.967Z,140
2017-09-25T14:27:45.600Z,145
2017-09-25T14:28:47.243Z,150
2017-09-25T14:29:48.876Z,155
2017-09-25T14:30:50.523Z,160
2017-09-25T14:31:52.211Z,160
2017-09-25T14:32:53.846Z,160
2017-09-25T14:33:55.535Z,160
2017-09-25T14:34:57.242Z,160
2017-09-25T14:35:58.879Z,160
2017-09-25T14:37:00.517Z,160
2017-09-25T14:38:02.151Z,165
2017-09-25T14:39:03.824Z,165
2017-09-25T14:40:05.480Z,165
2017-09-25T14:41:07.191Z,165
2017-09-25T14:42:08.823Z,165
2017-09-25T14:43:10.459Z,165